Corona, California
Current Conditions -  °F | °C
As of 8:56 AM on Friday 19 Dec 2014 (Local Time) from KAJO Reporting Station
Clear Clear  
Wind Chill: 51°   Ceiling: Unl
Heat Index: 51°   Visibility: 10mi
Dew Point: 47°   Wind: 3mph
Humidity: 86%   Direction: NA
Pressure: 30.26"   Gusts: NA
Location:  33.88°N, 117.57°W
Report Text: KAJO 191656Z AUTO VRB03KT 10SM CLR 11/08 A3026 RMK AO2 T01050083 SLP246 $
Loading
Personal Weather Stations






























Interactive Weather Map New forecast layout! Learn more

10-Day Weather Forecast

Advertisements
Track Severe Weather on mobile